sensor_id;sensor_type;location;lat;lon;timestamp;P1;durP1;ratioP1;P2;durP2;ratioP2
6019;SDS011;3038;51.122;6.840;2023-05-07T00:00:19;10.67;;;7.67;;
6019;SDS011;3038;51.122;6.840;2023-05-07T00:02:45;9.13;;;8.23;;
6019;SDS011;3038;51.122;6.840;2023-05-07T00:05:11;8.60;;;7.90;;
6019;SDS011;3038;51.122;6.840;2023-05-07T00:07:36;8.97;;;8.07;;
6019;SDS011;3038;51.122;6.840;2023-05-07T00:10:02;10.03;;;9.03;;
6019;SDS011;3038;51.122;6.840;2023-05-07T00:12:28;8.90;;;8.10;;
6019;SDS011;3038;51.122;6.840;2023-05-07T00:14:56;9.27;;;8.43;;
6019;SDS011;3038;51.122;6.840;2023-05-07T00:17:22;8.50;;;7.77;;
6019;SDS011;3038;51.122;6.840;2023-05-07T00:19:47;8.60;;;7.80;;
6019;SDS011;3038;51.122;6.840;2023-05-07T00:22:12;8.67;;;7.77;;
6019;SDS011;3038;51.122;6.840;2023-05-07T00:24:38;8.50;;;7.60;;
6019;SDS011;3038;51.122;6.840;2023-05-07T00:27:03;7.63;;;7.00;;
6019;SDS011;3038;51.122;6.840;2023-05-07T00:29:28;8.50;;;7.87;;
6019;SDS011;3038;51.122;6.840;2023-05-07T00:31:54;8.47;;;7.77;;
6019;SDS011;3038;51.122;6.840;2023-05-07T00:34:19;9.13;;;7.90;;
6019;SDS011;3038;51.122;6.840;2023-05-07T00:36:45;7.53;;;6.93;;
6019;SDS011;3038;51.122;6.840;2023-05-07T00:39:10;8.43;;;7.60;;
6019;SDS011;3038;51.122;6.840;2023-05-07T00:41:36;8.80;;;7.93;;
6019;SDS011;3038;51.122;6.840;2023-05-07T00:44:01;8.83;;;8.03;;
6019;SDS011;3038;51.122;6.840;2023-05-07T00:46:27;10.00;;;9.20;;
6019;SDS011;3038;51.122;6.840;2023-05-07T00:48:53;10.20;;;8.57;;
6019;SDS011;3038;51.122;6.840;2023-05-07T00:51:18;8.40;;;7.60;;
6019;SDS011;3038;51.122;6.840;2023-05-07T00:53:44;8.30;;;7.60;;
6019;SDS011;3038;51.122;6.840;2023-05-07T00:56:11;9.23;;;8.43;;
6019;SDS011;3038;51.122;6.840;2023-05-07T00:58:37;8.33;;;7.70;;
6019;SDS011;3038;51.122;6.840;2023-05-07T01:01:03;8.00;;;7.30;;
6019;SDS011;3038;51.122;6.840;2023-05-07T01:03:28;8.50;;;7.80;;
6019;SDS011;3038;51.122;6.840;2023-05-07T01:05:54;7.87;;;7.30;;
6019;SDS011;3038;51.122;6.840;2023-05-07T01:08:22;8.80;;;7.17;;
6019;SDS011;3038;51.122;6.840;2023-05-07T01:10:49;7.57;;;6.97;;
6019;SDS011;3038;51.122;6.840;2023-05-07T01:13:16;6.93;;;6.43;;
6019;SDS011;3038;51.122;6.840;2023-05-07T01:15:43;6.93;;;6.33;;
6019;SDS011;3038;51.122;6.840;2023-05-07T01:18:08;7.90;;;7.20;;
6019;SDS011;3038;51.122;6.840;2023-05-07T01:20:34;6.63;;;6.13;;
6019;SDS011;3038;51.122;6.840;2023-05-07T01:22:59;7.43;;;6.80;;
6019;SDS011;3038;51.122;6.840;2023-05-07T01:25:25;7.20;;;6.60;;
6019;SDS011;3038;51.122;6.840;2023-05-07T01:27:51;6.60;;;6.10;;
6019;SDS011;3038;51.122;6.840;2023-05-07T01:30:16;7.40;;;6.80;;
6019;SDS011;3038;51.122;6.840;2023-05-07T01:32:48;7.50;;;6.90;;
6019;SDS011;3038;51.122;6.840;2023-05-07T01:35:23;7.47;;;6.70;;
6019;SDS011;3038;51.122;6.840;2023-05-07T01:37:52;7.80;;;7.20;;
6019;SDS011;3038;51.122;6.840;2023-05-07T01:40:18;7.17;;;6.57;;
6019;SDS011;3038;51.122;6.840;2023-05-07T01:42:44;7.17;;;6.63;;
6019;SDS011;3038;51.122;6.840;2023-05-07T01:45:10;7.53;;;6.83;;
6019;SDS011;3038;51.122;6.840;2023-05-07T01:47:36;7.40;;;6.80;;
6019;SDS011;3038;51.122;6.840;2023-05-07T01:50:03;7.67;;;7.07;;
6019;SDS011;3038;51.122;6.840;2023-05-07T01:52:33;7.97;;;7.03;;
6019;SDS011;3038;51.122;6.840;2023-05-07T01:54:59;7.83;;;7.03;;
6019;SDS011;3038;51.122;6.840;2023-05-07T01:57:24;7.93;;;7.20;;
6019;SDS011;3038;51.122;6.840;2023-05-07T01:59:50;9.63;;;6.90;;
6019;SDS011;3038;51.122;6.840;2023-05-07T02:02:15;7.83;;;7.13;;
6019;SDS011;3038;51.122;6.840;2023-05-07T02:04:41;7.57;;;6.97;;
6019;SDS011;3038;51.122;6.840;2023-05-07T02:07:06;7.53;;;6.83;;
6019;SDS011;3038;51.122;6.840;2023-05-07T02:09:31;7.70;;;7.00;;
6019;SDS011;3038;51.122;6.840;2023-05-07T02:11:57;7.70;;;7.10;;
6019;SDS011;3038;51.122;6.840;2023-05-07T02:14:22;7.40;;;6.90;;
6019;SDS011;3038;51.122;6.840;2023-05-07T02:16:47;7.30;;;6.60;;
6019;SDS011;3038;51.122;6.840;2023-05-07T02:19:13;7.13;;;6.63;;
6019;SDS011;3038;51.122;6.840;2023-05-07T02:21:38;6.70;;;6.10;;
6019;SDS011;3038;51.122;6.840;2023-05-07T02:24:03;6.80;;;6.30;;
6019;SDS011;3038;51.122;6.840;2023-05-07T02:26:29;7.83;;;7.03;;
6019;SDS011;3038;51.122;6.840;2023-05-07T02:28:54;6.80;;;6.20;;
6019;SDS011;3038;51.122;6.840;2023-05-07T02:31:20;7.30;;;6.60;;
6019;SDS011;3038;51.122;6.840;2023-05-07T02:33:45;7.10;;;6.50;;
6019;SDS011;3038;51.122;6.840;2023-05-07T02:36:11;6.90;;;6.30;;
6019;SDS011;3038;51.122;6.840;2023-05-07T02:38:37;8.03;;;7.30;;
6019;SDS011;3038;51.122;6.840;2023-05-07T02:41:03;7.23;;;6.57;;
6019;SDS011;3038;51.122;6.840;2023-05-07T02:43:28;7.37;;;6.70;;
6019;SDS011;3038;51.122;6.840;2023-05-07T02:46:03;7.33;;;6.63;;
6019;SDS011;3038;51.122;6.840;2023-05-07T02:48:30;7.10;;;6.40;;
6019;SDS011;3038;51.122;6.840;2023-05-07T02:50:55;7.60;;;6.70;;
6019;SDS011;3038;51.122;6.840;2023-05-07T02:53:20;7.57;;;6.87;;
6019;SDS011;3038;51.122;6.840;2023-05-07T02:55:46;7.80;;;7.10;;
6019;SDS011;3038;51.122;6.840;2023-05-07T02:58:11;7.10;;;6.50;;
6019;SDS011;3038;51.122;6.840;2023-05-07T03:00:37;8.00;;;7.30;;
6019;SDS011;3038;51.122;6.840;2023-05-07T03:03:02;7.67;;;7.07;;
6019;SDS011;3038;51.122;6.840;2023-05-07T03:05:28;7.33;;;6.73;;
6019;SDS011;3038;51.122;6.840;2023-05-07T03:07:53;7.47;;;6.87;;
6019;SDS011;3038;51.122;6.840;2023-05-07T03:10:19;7.60;;;6.80;;
6019;SDS011;3038;51.122;6.840;2023-05-07T03:12:44;7.00;;;6.50;;
6019;SDS011;3038;51.122;6.840;2023-05-07T03:15:19;7.10;;;6.50;;
6019;SDS011;3038;51.122;6.840;2023-05-07T03:17:44;7.67;;;7.07;;
6019;SDS011;3038;51.122;6.840;2023-05-07T03:20:10;7.53;;;6.80;;
6019;SDS011;3038;51.122;6.840;2023-05-07T03:22:35;7.13;;;6.53;;
6019;SDS011;3038;51.122;6.840;2023-05-07T03:25:01;7.00;;;6.40;;
6019;SDS011;3038;51.122;6.840;2023-05-07T03:27:26;8.20;;;7.47;;
6019;SDS011;3038;51.122;6.840;2023-05-07T03:29:52;9.30;;;6.63;;
6019;SDS011;3038;51.122;6.840;2023-05-07T03:32:17;7.70;;;6.87;;
6019;SDS011;3038;51.122;6.840;2023-05-07T03:34:42;11.13;;;6.97;;
6019;SDS011;3038;51.122;6.840;2023-05-07T03:37:08;8.53;;;6.77;;
6019;SDS011;3038;51.122;6.840;2023-05-07T03:39:33;8.30;;;6.50;;
6019;SDS011;3038;51.122;6.840;2023-05-07T03:41:58;12.30;;;6.33;;
6019;SDS011;3038;51.122;6.840;2023-05-07T03:44:24;8.10;;;6.90;;
6019;SDS011;3038;51.122;6.840;2023-05-07T03:46:49;7.33;;;6.37;;
6019;SDS011;3038;51.122;6.840;2023-05-07T03:49:15;7.87;;;7.23;;
6019;SDS011;3038;51.122;6.840;2023-05-07T03:51:40;7.20;;;6.60;;
6019;SDS011;3038;51.122;6.840;2023-05-07T03:54:06;7.27;;;6.57;;
6019;SDS011;3038;51.122;6.840;2023-05-07T03:56:32;7.50;;;6.50;;
6019;SDS011;3038;51.122;6.840;2023-05-07T03:58:57;7.57;;;6.97;;
6019;SDS011;3038;51.122;6.840;2023-05-07T04:01:23;7.27;;;6.67;;
6019;SDS011;3038;51.122;6.840;2023-05-07T04:03:48;6.87;;;6.43;;
6019;SDS011;3038;51.122;6.840;2023-05-07T04:06:15;7.60;;;6.90;;
6019;SDS011;3038;51.122;6.840;2023-05-07T04:08:40;6.60;;;6.10;;
6019;SDS011;3038;51.122;6.840;2023-05-07T04:11:06;7.67;;;7.00;;
6019;SDS011;3038;51.122;6.840;2023-05-07T04:13:31;6.70;;;6.10;;
6019;SDS011;3038;51.122;6.840;2023-05-07T04:15:57;7.20;;;6.60;;
6019;SDS011;3038;51.122;6.840;2023-05-07T04:18:22;6.90;;;6.07;;
6019;SDS011;3038;51.122;6.840;2023-05-07T04:20:48;7.40;;;6.70;;
6019;SDS011;3038;51.122;6.840;2023-05-07T04:23:16;7.73;;;7.13;;
6019;SDS011;3038;51.122;6.840;2023-05-07T04:25:41;7.03;;;6.43;;
6019;SDS011;3038;51.122;6.840;2023-05-07T04:28:07;8.27;;;7.40;;
6019;SDS011;3038;51.122;6.840;2023-05-07T04:30:32;6.80;;;6.20;;
6019;SDS011;3038;51.122;6.840;2023-05-07T04:32:57;6.30;;;5.67;;
6019;SDS011;3038;51.122;6.840;2023-05-07T04:35:23;6.87;;;6.37;;
6019;SDS011;3038;51.122;6.840;2023-05-07T04:37:48;6.70;;;6.20;;
6019;SDS011;3038;51.122;6.840;2023-05-07T04:40:14;6.80;;;6.20;;
6019;SDS011;3038;51.122;6.840;2023-05-07T04:42:39;6.77;;;6.27;;
6019;SDS011;3038;51.122;6.840;2023-05-07T04:45:05;6.27;;;5.77;;
6019;SDS011;3038;51.122;6.840;2023-05-07T04:47:31;8.13;;;6.60;;
6019;SDS011;3038;51.122;6.840;2023-05-07T04:49:57;7.43;;;6.70;;
6019;SDS011;3038;51.122;6.840;2023-05-07T04:52:23;7.10;;;5.70;;
6019;SDS011;3038;51.122;6.840;2023-05-07T04:54:48;6.27;;;5.77;;
6019;SDS011;3038;51.122;6.840;2023-05-07T04:57:13;7.33;;;5.70;;
6019;SDS011;3038;51.122;6.840;2023-05-07T04:59:39;5.83;;;5.30;;
6019;SDS011;3038;51.122;6.840;2023-05-07T05:02:04;6.27;;;5.67;;
6019;SDS011;3038;51.122;6.840;2023-05-07T05:04:30;5.80;;;5.40;;
6019;SDS011;3038;51.122;6.840;2023-05-07T05:06:55;5.80;;;5.30;;
6019;SDS011;3038;51.122;6.840;2023-05-07T05:09:23;4.93;;;4.53;;
6019;SDS011;3038;51.122;6.840;2023-05-07T05:11:48;5.90;;;5.43;;
6019;SDS011;3038;51.122;6.840;2023-05-07T05:14:14;4.83;;;4.43;;
6019;SDS011;3038;51.122;6.840;2023-05-07T05:16:39;4.97;;;4.50;;
6019;SDS011;3038;51.122;6.840;2023-05-07T05:19:04;5.13;;;4.70;;
6019;SDS011;3038;51.122;6.840;2023-05-07T05:21:30;6.13;;;5.00;;
6019;SDS011;3038;51.122;6.840;2023-05-07T05:23:56;4.90;;;4.50;;
6019;SDS011;3038;51.122;6.840;2023-05-07T05:26:21;4.50;;;4.20;;
6019;SDS011;3038;51.122;6.840;2023-05-07T05:28:47;5.10;;;4.80;;
6019;SDS011;3038;51.122;6.840;2023-05-07T05:31:12;5.67;;;5.17;;
6019;SDS011;3038;51.122;6.840;2023-05-07T05:33:39;5.23;;;4.67;;
6019;SDS011;3038;51.122;6.840;2023-05-07T05:36:05;5.60;;;5.10;;
6019;SDS011;3038;51.122;6.840;2023-05-07T05:38:30;4.93;;;4.53;;
6019;SDS011;3038;51.122;6.840;2023-05-07T05:40:56;4.73;;;4.43;;
6019;SDS011;3038;51.122;6.840;2023-05-07T05:43:21;6.20;;;5.10;;
6019;SDS011;3038;51.122;6.840;2023-05-07T05:45:46;6.27;;;5.17;;
6019;SDS011;3038;51.122;6.840;2023-05-07T05:48:12;5.47;;;5.00;;
6019;SDS011;3038;51.122;6.840;2023-05-07T05:50:37;4.93;;;4.37;;
6019;SDS011;3038;51.122;6.840;2023-05-07T05:53:03;6.63;;;4.40;;
6019;SDS011;3038;51.122;6.840;2023-05-07T05:55:28;5.00;;;4.50;;
6019;SDS011;3038;51.122;6.840;2023-05-07T05:57:54;4.20;;;3.90;;
6019;SDS011;3038;51.122;6.840;2023-05-07T06:00:20;5.67;;;5.27;;
6019;SDS011;3038;51.122;6.840;2023-05-07T06:02:47;4.43;;;4.13;;
6019;SDS011;3038;51.122;6.840;2023-05-07T06:05:13;4.50;;;4.10;;
6019;SDS011;3038;51.122;6.840;2023-05-07T06:07:38;4.20;;;3.90;;
6019;SDS011;3038;51.122;6.840;2023-05-07T06:10:03;4.80;;;4.33;;
6019;SDS011;3038;51.122;6.840;2023-05-07T06:12:30;4.47;;;4.07;;
6019;SDS011;3038;51.122;6.840;2023-05-07T06:14:55;4.43;;;4.03;;
6019;SDS011;3038;51.122;6.840;2023-05-07T06:17:20;4.63;;;4.10;;
6019;SDS011;3038;51.122;6.840;2023-05-07T06:19:46;4.43;;;4.03;;
6019;SDS011;3038;51.122;6.840;2023-05-07T06:22:11;4.83;;;4.43;;
6019;SDS011;3038;51.122;6.840;2023-05-07T06:24:36;4.27;;;3.87;;
6019;SDS011;3038;51.122;6.840;2023-05-07T06:27:02;4.50;;;4.10;;
6019;SDS011;3038;51.122;6.840;2023-05-07T06:29:27;4.73;;;4.33;;
6019;SDS011;3038;51.122;6.840;2023-05-07T06:31:52;5.30;;;4.90;;
6019;SDS011;3038;51.122;6.840;2023-05-07T06:34:18;6.17;;;4.50;;
6019;SDS011;3038;51.122;6.840;2023-05-07T06:36:43;4.87;;;4.37;;
6019;SDS011;3038;51.122;6.840;2023-05-07T06:39:09;4.90;;;4.40;;
6019;SDS011;3038;51.122;6.840;2023-05-07T06:41:34;5.73;;;5.23;;
6019;SDS011;3038;51.122;6.840;2023-05-07T06:44:01;5.23;;;4.60;;
6019;SDS011;3038;51.122;6.840;2023-05-07T06:46:27;5.17;;;4.67;;
6019;SDS011;3038;51.122;6.840;2023-05-07T06:48:52;5.63;;;4.17;;
6019;SDS011;3038;51.122;6.840;2023-05-07T06:51:18;4.70;;;3.83;;
6019;SDS011;3038;51.122;6.840;2023-05-07T06:53:43;7.20;;;3.93;;
6019;SDS011;3038;51.122;6.840;2023-05-07T06:56:08;4.47;;;4.17;;
6019;SDS011;3038;51.122;6.840;2023-05-07T06:58:34;4.30;;;3.90;;
6019;SDS011;3038;51.122;6.840;2023-05-07T07:00:59;3.97;;;3.57;;
6019;SDS011;3038;51.122;6.840;2023-05-07T07:03:24;4.03;;;3.73;;
6019;SDS011;3038;51.122;6.840;2023-05-07T07:05:53;4.40;;;4.03;;
6019;SDS011;3038;51.122;6.840;2023-05-07T07:08:20;5.80;;;4.50;;
6019;SDS011;3038;51.122;6.840;2023-05-07T07:10:46;4.60;;;4.20;;
6019;SDS011;3038;51.122;6.840;2023-05-07T07:13:12;4.63;;;3.43;;
6019;SDS011;3038;51.122;6.840;2023-05-07T07:15:37;5.30;;;4.43;;
6019;SDS011;3038;51.122;6.840;2023-05-07T07:18:03;4.73;;;4.20;;
6019;SDS011;3038;51.122;6.840;2023-05-07T07:20:29;4.73;;;4.13;;
6019;SDS011;3038;51.122;6.840;2023-05-07T07:22:54;4.80;;;4.40;;
6019;SDS011;3038;51.122;6.840;2023-05-07T07:25:20;4.30;;;4.00;;
6019;SDS011;3038;51.122;6.840;2023-05-07T07:27:45;4.83;;;4.43;;
6019;SDS011;3038;51.122;6.840;2023-05-07T07:30:14;4.63;;;4.17;;
6019;SDS011;3038;51.122;6.840;2023-05-07T07:32:45;4.50;;;4.10;;
6019;SDS011;3038;51.122;6.840;2023-05-07T07:35:11;5.30;;;4.77;;
6019;SDS011;3038;51.122;6.840;2023-05-07T07:37:36;5.60;;;5.10;;
6019;SDS011;3038;51.122;6.840;2023-05-07T07:40:05;7.77;;;4.37;;
6019;SDS011;3038;51.122;6.840;2023-05-07T07:42:53;5.10;;;4.70;;
6019;SDS011;3038;51.122;6.840;2023-05-07T07:45:19;6.77;;;4.83;;
6019;SDS011;3038;51.122;6.840;2023-05-07T07:47:48;4.90;;;4.50;;
6019;SDS011;3038;51.122;6.840;2023-05-07T07:50:13;5.27;;;4.77;;
6019;SDS011;3038;51.122;6.840;2023-05-07T07:52:39;5.70;;;5.17;;
6019;SDS011;3038;51.122;6.840;2023-05-07T07:55:04;4.97;;;4.57;;
6019;SDS011;3038;51.122;6.840;2023-05-07T08:00:33;6.20;;;4.93;;
6019;SDS011;3038;51.122;6.840;2023-05-07T08:02:59;4.47;;;3.83;;
6019;SDS011;3038;51.122;6.840;2023-05-07T08:05:28;4.07;;;3.67;;
6019;SDS011;3038;51.122;6.840;2023-05-07T08:07:54;5.23;;;3.77;;
6019;SDS011;3038;51.122;6.840;2023-05-07T08:10:19;3.73;;;3.43;;
6019;SDS011;3038;51.122;6.840;2023-05-07T08:12:48;5.13;;;3.57;;
6019;SDS011;3038;51.122;6.840;2023-05-07T08:15:14;4.77;;;4.23;;
6019;SDS011;3038;51.122;6.840;2023-05-07T08:17:40;4.73;;;3.57;;
6019;SDS011;3038;51.122;6.840;2023-05-07T08:20:05;4.43;;;3.13;;
6019;SDS011;3038;51.122;6.840;2023-05-07T08:22:32;3.77;;;3.47;;
6019;SDS011;3038;51.122;6.840;2023-05-07T08:24:58;4.73;;;3.50;;
6019;SDS011;3038;51.122;6.840;2023-05-07T08:27:24;6.00;;;3.43;;
6019;SDS011;3038;51.122;6.840;2023-05-07T08:29:50;3.63;;;3.30;;
6019;SDS011;3038;51.122;6.840;2023-05-07T08:32:15;3.73;;;3.07;;
6019;SDS011;3038;51.122;6.840;2023-05-07T08:34:41;3.33;;;3.10;;
6019;SDS011;3038;51.122;6.840;2023-05-07T08:37:08;3.93;;;3.40;;
6019;SDS011;3038;51.122;6.840;2023-05-07T08:39:34;6.03;;;3.77;;
6019;SDS011;3038;51.122;6.840;2023-05-07T08:42:00;4.97;;;4.10;;
6019;SDS011;3038;51.122;6.840;2023-05-07T08:44:32;4.17;;;3.80;;
6019;SDS011;3038;51.122;6.840;2023-05-07T08:47:02;6.30;;;3.83;;
6019;SDS011;3038;51.122;6.840;2023-05-07T08:49:31;4.40;;;4.00;;
6019;SDS011;3038;51.122;6.840;2023-05-07T08:52:01;3.70;;;3.40;;
6019;SDS011;3038;51.122;6.840;2023-05-07T08:54:27;5.40;;;3.57;;
6019;SDS011;3038;51.122;6.840;2023-05-07T08:56:54;3.37;;;3.10;;
6019;SDS011;3038;51.122;6.840;2023-05-07T08:59:20;4.00;;;3.70;;
6019;SDS011;3038;51.122;6.840;2023-05-07T09:01:46;4.07;;;3.63;;
6019;SDS011;3038;51.122;6.840;2023-05-07T09:04:12;3.53;;;3.23;;
6019;SDS011;3038;51.122;6.840;2023-05-07T09:06:38;3.60;;;3.40;;
6019;SDS011;3038;51.122;6.840;2023-05-07T09:09:07;3.13;;;2.93;;
6019;SDS011;3038;51.122;6.840;2023-05-07T09:11:39;3.80;;;3.40;;
6019;SDS011;3038;51.122;6.840;2023-05-07T09:14:04;3.90;;;3.60;;
6019;SDS011;3038;51.122;6.840;2023-05-07T09:16:30;3.27;;;2.97;;
6019;SDS011;3038;51.122;6.840;2023-05-07T09:18:57;3.70;;;3.40;;
6019;SDS011;3038;51.122;6.840;2023-05-07T09:21:24;3.50;;;3.20;;
6019;SDS011;3038;51.122;6.840;2023-05-07T09:23:53;3.53;;;3.23;;
6019;SDS011;3038;51.122;6.840;2023-05-07T09:26:23;3.30;;;3.00;;
6019;SDS011;3038;51.122;6.840;2023-05-07T09:28:50;2.60;;;2.40;;
6019;SDS011;3038;51.122;6.840;2023-05-07T09:31:15;4.10;;;3.03;;
6019;SDS011;3038;51.122;6.840;2023-05-07T09:33:41;3.83;;;3.13;;
6019;SDS011;3038;51.122;6.840;2023-05-07T09:36:10;3.80;;;3.50;;
6019;SDS011;3038;51.122;6.840;2023-05-07T09:38:38;3.30;;;2.73;;
6019;SDS011;3038;51.122;6.840;2023-05-07T09:41:08;3.10;;;2.80;;
6019;SDS011;3038;51.122;6.840;2023-05-07T09:43:36;3.30;;;3.00;;
6019;SDS011;3038;51.122;6.840;2023-05-07T09:46:03;4.27;;;3.57;;
6019;SDS011;3038;51.122;6.840;2023-05-07T09:48:34;3.57;;;3.27;;
6019;SDS011;3038;51.122;6.840;2023-05-07T09:51:02;4.60;;;3.73;;
6019;SDS011;3038;51.122;6.840;2023-05-07T09:53:31;4.20;;;3.60;;
6019;SDS011;3038;51.122;6.840;2023-05-07T09:55:58;3.83;;;3.53;;
6019;SDS011;3038;51.122;6.840;2023-05-07T09:58:25;5.57;;;4.10;;
6019;SDS011;3038;51.122;6.840;2023-05-07T10:00:53;4.20;;;3.80;;
6019;SDS011;3038;51.122;6.840;2023-05-07T10:03:44;3.80;;;3.43;;
6019;SDS011;3038;51.122;6.840;2023-05-07T10:06:20;4.00;;;3.70;;
6019;SDS011;3038;51.122;6.840;2023-05-07T10:08:47;3.90;;;3.50;;
6019;SDS011;3038;51.122;6.840;2023-05-07T10:11:14;3.97;;;3.03;;
6019;SDS011;3038;51.122;6.840;2023-05-07T10:13:43;3.63;;;3.17;;
6019;SDS011;3038;51.122;6.840;2023-05-07T10:16:14;3.20;;;3.00;;
6019;SDS011;3038;51.122;6.840;2023-05-07T10:21:58;3.73;;;3.43;;
6019;SDS011;3038;51.122;6.840;2023-05-07T10:24:31;3.37;;;3.07;;
6019;SDS011;3038;51.122;6.840;2023-05-07T10:26:59;4.43;;;3.37;;
6019;SDS011;3038;51.122;6.840;2023-05-07T10:34:37;5.07;;;3.00;;
6019;SDS011;3038;51.122;6.840;2023-05-07T10:37:10;3.47;;;3.17;;
6019;SDS011;3038;51.122;6.840;2023-05-07T10:39:37;4.43;;;3.30;;
6019;SDS011;3038;51.122;6.840;2023-05-07T10:44:57;3.37;;;3.07;;
6019;SDS011;3038;51.122;6.840;2023-05-07T10:47:36;6.30;;;3.10;;
6019;SDS011;3038;51.122;6.840;2023-05-07T10:50:41;3.60;;;3.30;;
6019;SDS011;3038;51.122;6.840;2023-05-07T10:55:49;3.43;;;2.80;;
6019;SDS011;3038;51.122;6.840;2023-05-07T10:58:37;3.07;;;2.77;;
6019;SDS011;3038;51.122;6.840;2023-05-07T11:01:02;3.03;;;2.67;;
6019;SDS011;3038;51.122;6.840;2023-05-07T11:03:28;3.33;;;3.03;;
6019;SDS011;3038;51.122;6.840;2023-05-07T11:06:15;3.90;;;2.93;;
6019;SDS011;3038;51.122;6.840;2023-05-07T11:08:52;3.43;;;2.60;;
6019;SDS011;3038;51.122;6.840;2023-05-07T11:11:18;2.90;;;2.70;;
6019;SDS011;3038;51.122;6.840;2023-05-07T11:13:48;3.60;;;3.30;;
6019;SDS011;3038;51.122;6.840;2023-05-07T11:16:17;3.17;;;2.90;;
6019;SDS011;3038;51.122;6.840;2023-05-07T11:18:50;4.40;;;4.10;;
6019;SDS011;3038;51.122;6.840;2023-05-07T11:21:36;4.93;;;4.37;;
6019;SDS011;3038;51.122;6.840;2023-05-07T11:24:02;5.40;;;5.00;;
6019;SDS011;3038;51.122;6.840;2023-05-07T11:26:29;5.83;;;5.33;;
6019;SDS011;3038;51.122;6.840;2023-05-07T11:29:15;5.47;;;4.97;;
6019;SDS011;3038;51.122;6.840;2023-05-07T11:31:48;3.40;;;3.10;;
6019;SDS011;3038;51.122;6.840;2023-05-07T11:34:20;4.30;;;2.70;;
6019;SDS011;3038;51.122;6.840;2023-05-07T11:36:47;2.83;;;2.63;;
6019;SDS011;3038;51.122;6.840;2023-05-07T11:39:30;4.40;;;3.03;;
6019;SDS011;3038;51.122;6.840;2023-05-07T11:41:57;2.97;;;2.77;;
6019;SDS011;3038;51.122;6.840;2023-05-07T11:44:23;10.83;;;9.87;;
6019;SDS011;3038;51.122;6.840;2023-05-07T11:46:49;5.87;;;5.37;;
6019;SDS011;3038;51.122;6.840;2023-05-07T11:49:14;3.87;;;3.57;;
6019;SDS011;3038;51.122;6.840;2023-05-07T11:51:40;3.00;;;2.80;;
6019;SDS011;3038;51.122;6.840;2023-05-07T11:54:07;4.67;;;4.27;;
6019;SDS011;3038;51.122;6.840;2023-05-07T11:56:34;3.20;;;2.73;;
6019;SDS011;3038;51.122;6.840;2023-05-07T11:59:00;2.80;;;2.60;;
6019;SDS011;3038;51.122;6.840;2023-05-07T12:01:25;3.50;;;2.50;;
6019;SDS011;3038;51.122;6.840;2023-05-07T12:03:51;3.43;;;3.13;;
6019;SDS011;3038;51.122;6.840;2023-05-07T12:06:16;4.83;;;4.43;;
6019;SDS011;3038;51.122;6.840;2023-05-07T12:08:43;3.33;;;3.13;;
6019;SDS011;3038;51.122;6.840;2023-05-07T12:11:11;3.13;;;2.40;;
6019;SDS011;3038;51.122;6.840;2023-05-07T12:13:39;2.80;;;2.60;;
6019;SDS011;3038;51.122;6.840;2023-05-07T12:16:15;3.30;;;2.97;;
6019;SDS011;3038;51.122;6.840;2023-05-07T12:19:28;3.40;;;3.10;;
6019;SDS011;3038;51.122;6.840;2023-05-07T12:21:55;3.30;;;3.00;;
6019;SDS011;3038;51.122;6.840;2023-05-07T12:24:21;3.23;;;3.03;;
6019;SDS011;3038;51.122;6.840;2023-05-07T12:26:47;3.27;;;3.07;;
6019;SDS011;3038;51.122;6.840;2023-05-07T12:29:13;2.90;;;2.70;;
6019;SDS011;3038;51.122;6.840;2023-05-07T12:31:44;2.83;;;2.60;;
6019;SDS011;3038;51.122;6.840;2023-05-07T12:34:21;2.90;;;2.70;;
6019;SDS011;3038;51.122;6.840;2023-05-07T12:37:01;2.80;;;2.57;;
6019;SDS011;3038;51.122;6.840;2023-05-07T12:40:13;3.67;;;2.90;;
6019;SDS011;3038;51.122;6.840;2023-05-07T12:42:41;5.10;;;3.13;;
6019;SDS011;3038;51.122;6.840;2023-05-07T12:45:12;3.77;;;3.47;;
6019;SDS011;3038;51.122;6.840;2023-05-07T12:47:43;3.23;;;2.90;;
6019;SDS011;3038;51.122;6.840;2023-05-07T12:50:13;2.90;;;2.60;;
6019;SDS011;3038;51.122;6.840;2023-05-07T12:52:39;2.83;;;2.60;;
6019;SDS011;3038;51.122;6.840;2023-05-07T12:55:11;5.23;;;3.10;;
6019;SDS011;3038;51.122;6.840;2023-05-07T12:58:04;3.53;;;3.07;;
6019;SDS011;3038;51.122;6.840;2023-05-07T13:00:41;3.33;;;2.93;;
6019;SDS011;3038;51.122;6.840;2023-05-07T13:03:26;3.03;;;2.83;;
6019;SDS011;3038;51.122;6.840;2023-05-07T13:06:03;3.00;;;2.80;;
6019;SDS011;3038;51.122;6.840;2023-05-07T13:08:36;3.97;;;2.67;;
6019;SDS011;3038;51.122;6.840;2023-05-07T13:11:08;2.70;;;2.50;;
6019;SDS011;3038;51.122;6.840;2023-05-07T13:13:43;2.97;;;2.67;;
6019;SDS011;3038;51.122;6.840;2023-05-07T13:16:11;3.10;;;2.80;;
6019;SDS011;3038;51.122;6.840;2023-05-07T13:18:39;2.73;;;2.53;;
6019;SDS011;3038;51.122;6.840;2023-05-07T13:21:23;4.97;;;3.00;;
6019;SDS011;3038;51.122;6.840;2023-05-07T13:23:48;3.80;;;3.37;;
6019;SDS011;3038;51.122;6.840;2023-05-07T13:26:14;3.33;;;3.00;;
6019;SDS011;3038;51.122;6.840;2023-05-07T13:28:40;3.60;;;2.87;;
6019;SDS011;3038;51.122;6.840;2023-05-07T13:31:06;2.70;;;2.50;;
6019;SDS011;3038;51.122;6.840;2023-05-07T13:33:38;3.10;;;2.90;;
6019;SDS011;3038;51.122;6.840;2023-05-07T13:36:27;3.60;;;2.80;;
6019;SDS011;3038;51.122;6.840;2023-05-07T13:39:02;5.90;;;3.03;;
6019;SDS011;3038;51.122;6.840;2023-05-07T13:41:37;5.43;;;3.30;;
6019;SDS011;3038;51.122;6.840;2023-05-07T13:44:05;3.10;;;2.90;;
6019;SDS011;3038;51.122;6.840;2023-05-07T13:46:31;3.83;;;3.50;;
6019;SDS011;3038;51.122;6.840;2023-05-07T13:48:59;4.53;;;4.10;;
6019;SDS011;3038;51.122;6.840;2023-05-07T13:51:28;4.97;;;3.33;;
6019;SDS011;3038;51.122;6.840;2023-05-07T13:54:02;4.47;;;3.67;;
6019;SDS011;3038;51.122;6.840;2023-05-07T13:56:31;4.90;;;3.77;;
6019;SDS011;3038;51.122;6.840;2023-05-07T13:58:57;4.10;;;3.70;;
6019;SDS011;3038;51.122;6.840;2023-05-07T14:01:23;4.43;;;3.17;;
6019;SDS011;3038;51.122;6.840;2023-05-07T14:03:52;4.37;;;3.97;;
6019;SDS011;3038;51.122;6.840;2023-05-07T14:06:26;5.30;;;4.10;;
6019;SDS011;3038;51.122;6.840;2023-05-07T14:08:54;5.33;;;4.87;;
6019;SDS011;3038;51.122;6.840;2023-05-07T14:11:30;4.37;;;3.97;;
6019;SDS011;3038;51.122;6.840;2023-05-07T14:14:11;7.40;;;4.70;;
6019;SDS011;3038;51.122;6.840;2023-05-07T14:16:52;7.37;;;4.30;;
6019;SDS011;3038;51.122;6.840;2023-05-07T14:19:23;5.53;;;5.03;;
6019;SDS011;3038;51.122;6.840;2023-05-07T14:22:06;6.50;;;5.00;;
6019;SDS011;3038;51.122;6.840;2023-05-07T14:24:38;6.93;;;5.33;;
6019;SDS011;3038;51.122;6.840;2023-05-07T14:27:13;6.87;;;6.17;;
6019;SDS011;3038;51.122;6.840;2023-05-07T14:29:50;6.90;;;6.07;;
6019;SDS011;3038;51.122;6.840;2023-05-07T14:32:19;6.00;;;5.50;;
6019;SDS011;3038;51.122;6.840;2023-05-07T14:34:46;6.83;;;5.40;;
6019;SDS011;3038;51.122;6.840;2023-05-07T14:37:11;6.30;;;5.70;;
6019;SDS011;3038;51.122;6.840;2023-05-07T14:39:37;6.40;;;5.40;;
6019;SDS011;3038;51.122;6.840;2023-05-07T14:42:03;6.07;;;5.57;;
6019;SDS011;3038;51.122;6.840;2023-05-07T14:44:28;6.60;;;5.40;;
6019;SDS011;3038;51.122;6.840;2023-05-07T14:46:58;7.50;;;5.80;;
6019;SDS011;3038;51.122;6.840;2023-05-07T14:49:23;5.87;;;5.33;;
6019;SDS011;3038;51.122;6.840;2023-05-07T14:51:51;6.47;;;5.87;;
6019;SDS011;3038;51.122;6.840;2023-05-07T14:54:33;10.00;;;6.63;;
6019;SDS011;3038;51.122;6.840;2023-05-07T14:57:00;8.03;;;7.43;;
6019;SDS011;3038;51.122;6.840;2023-05-07T14:59:26;6.20;;;5.60;;
6019;SDS011;3038;51.122;6.840;2023-05-07T15:01:55;6.33;;;5.63;;
6019;SDS011;3038;51.122;6.840;2023-05-07T15:04:26;7.40;;;6.80;;
6019;SDS011;3038;51.122;6.840;2023-05-07T15:06:52;5.43;;;5.00;;
6019;SDS011;3038;51.122;6.840;2023-05-07T15:09:21;4.90;;;4.50;;
6019;SDS011;3038;51.122;6.840;2023-05-07T15:11:50;6.20;;;5.80;;
6019;SDS011;3038;51.122;6.840;2023-05-07T15:14:18;5.67;;;5.27;;
6019;SDS011;3038;51.122;6.840;2023-05-07T15:16:47;6.60;;;6.00;;
6019;SDS011;3038;51.122;6.840;2023-05-07T15:19:14;5.47;;;5.00;;
6019;SDS011;3038;51.122;6.840;2023-05-07T15:21:42;5.90;;;5.40;;
6019;SDS011;3038;51.122;6.840;2023-05-07T15:24:13;5.80;;;5.30;;
6019;SDS011;3038;51.122;6.840;2023-05-07T15:26:42;5.10;;;4.70;;
6019;SDS011;3038;51.122;6.840;2023-05-07T15:29:16;5.90;;;5.50;;
6019;SDS011;3038;51.122;6.840;2023-05-07T15:31:51;6.03;;;5.43;;
6019;SDS011;3038;51.122;6.840;2023-05-07T15:34:17;5.90;;;5.40;;
6019;SDS011;3038;51.122;6.840;2023-05-07T15:36:42;7.90;;;6.97;;